sensor_id;sensor_type;location;lat;lon;timestamp;pressure;altitude;pressure_sealevel;temperature;humidity
73103;BME280;61294;65.988;29.172;2023-05-01T00:00:19;97350.22;;;-0.10;100.00
73103;BME280;61294;65.988;29.172;2023-05-01T00:02:45;97347.53;;;-0.14;100.00
73103;BME280;61294;65.988;29.172;2023-05-01T00:05:11;97352.69;;;-0.14;100.00
73103;BME280;61294;65.988;29.172;2023-05-01T00:07:36;97349.28;;;-0.12;100.00
73103;BME280;61294;65.988;29.172;2023-05-01T00:10:02;97347.47;;;-0.18;100.00
73103;BME280;61294;65.988;29.172;2023-05-01T00:12:28;97343.19;;;-0.17;100.00
73103;BME280;61294;65.988;29.172;2023-05-01T00:14:54;97330.94;;;-0.26;100.00
73103;BME280;61294;65.988;29.172;2023-05-01T00:17:19;97349.28;;;-0.13;100.00
73103;BME280;61294;65.988;29.172;2023-05-01T00:19:53;97349.25;;;-0.15;100.00
73103;BME280;61294;65.988;29.172;2023-05-01T00:22:19;97343.94;;;-0.24;100.00
73103;BME280;61294;65.988;29.172;2023-05-01T00:24:45;97331.78;;;-0.28;100.00
73103;BME280;61294;65.988;29.172;2023-05-01T00:27:13;97331.69;;;-0.33;100.00
73103;BME280;61294;65.988;29.172;2023-05-01T00:29:39;97341.16;;;-0.35;100.00
73103;BME280;61294;65.988;29.172;2023-05-01T00:32:05;97312.31;;;-0.57;100.00
73103;BME280;61294;65.988;29.172;2023-05-01T00:34:31;97335.84;;;-0.43;100.00
73103;BME280;61294;65.988;29.172;2023-05-01T00:36:57;97355.69;;;-0.42;100.00
73103;BME280;61294;65.988;29.172;2023-05-01T00:39:23;97354.03;;;-0.40;100.00
73103;BME280;61294;65.988;29.172;2023-05-01T00:41:49;97322.66;;;-0.57;100.00
73103;BME280;61294;65.988;29.172;2023-05-01T00:44:15;97342.72;;;-0.43;100.00
73103;BME280;61294;65.988;29.172;2023-05-01T00:46:41;97354.91;;;-0.38;100.00
73103;BME280;61294;65.988;29.172;2023-05-01T00:49:08;97355.75;;;-0.39;100.00
73103;BME280;61294;65.988;29.172;2023-05-01T00:51:34;97337.47;;;-0.49;100.00
73103;BME280;61294;65.988;29.172;2023-05-01T00:54:01;97340.84;;;-0.52;100.00
73103;BME280;61294;65.988;29.172;2023-05-01T00:56:28;97335.63;;;-0.55;100.00
73103;BME280;61294;65.988;29.172;2023-05-01T00:58:55;97341.81;;;-0.47;100.00
73103;BME280;61294;65.988;29.172;2023-05-01T01:01:22;97351.38;;;-0.43;100.00
73103;BME280;61294;65.988;29.172;2023-05-01T01:03:48;97353.91;;;-0.44;100.00
73103;BME280;61294;65.988;29.172;2023-05-01T01:06:33;97345.09;;;-0.56;100.00
73103;BME280;61294;65.988;29.172;2023-05-01T01:15:08;97333.09;;;-0.52;100.00
73103;BME280;61294;65.988;29.172;2023-05-01T01:17:52;97333.16;;;-0.49;100.00
73103;BME280;61294;65.988;29.172;2023-05-01T01:20:29;97322.63;;;-0.60;100.00
73103;BME280;61294;65.988;29.172;2023-05-01T01:26:18;97349.28;;;-0.62;100.00
73103;BME280;61294;65.988;29.172;2023-05-01T01:31:38;97360.66;;;-0.54;100.00
73103;BME280;61294;65.988;29.172;2023-05-01T01:34:23;97370.13;;;-0.53;100.00
73103;BME280;61294;65.988;29.172;2023-05-01T01:37:01;97361.41;;;-0.61;100.00
73103;BME280;61294;65.988;29.172;2023-05-01T01:39:34;97369.97;;;-0.64;100.00
73103;BME280;61294;65.988;29.172;2023-05-01T01:42:06;97371.63;;;-0.66;100.00
73103;BME280;61294;65.988;29.172;2023-05-01T01:44:47;97375.09;;;-0.65;100.00
73103;BME280;61294;65.988;29.172;2023-05-01T01:47:14;97381.13;;;-0.66;100.00
73103;BME280;61294;65.988;29.172;2023-05-01T01:49:47;97352.56;;;-0.73;100.00
73103;BME280;61294;65.988;29.172;2023-05-01T01:52:15;97376.94;;;-0.60;100.00
73103;BME280;61294;65.988;29.172;2023-05-01T01:54:51;97367.44;;;-0.59;100.00
73103;BME280;61294;65.988;29.172;2023-05-01T01:57:20;97368.28;;;-0.60;100.00
73103;BME280;61294;65.988;29.172;2023-05-01T01:59:49;97361.53;;;-0.54;100.00
73103;BME280;61294;65.988;29.172;2023-05-01T02:02:17;97360.59;;;-0.56;100.00
73103;BME280;61294;65.988;29.172;2023-05-01T02:04:45;97370.19;;;-0.50;100.00
73103;BME280;61294;65.988;29.172;2023-05-01T02:07:13;97361.50;;;-0.55;100.00
73103;BME280;61294;65.988;29.172;2023-05-01T02:09:40;97371.81;;;-0.57;100.00
73103;BME280;61294;65.988;29.172;2023-05-01T02:12:07;97373.66;;;-0.51;100.00
73103;BME280;61294;65.988;29.172;2023-05-01T02:14:34;97378.91;;;-0.46;100.00
73103;BME280;61294;65.988;29.172;2023-05-01T02:17:01;97345.97;;;-0.55;100.00
73103;BME280;61294;65.988;29.172;2023-05-01T02:19:31;97366.81;;;-0.46;100.00
73103;BME280;61294;65.988;29.172;2023-05-01T02:21:58;97369.53;;;-0.40;100.00
73103;BME280;61294;65.988;29.172;2023-05-01T02:24:27;97367.00;;;-0.37;100.00
73103;BME280;61294;65.988;29.172;2023-05-01T02:27:02;97332.31;;;-0.48;100.00
73103;BME280;61294;65.988;29.172;2023-05-01T02:29:30;97374.88;;;-0.29;100.00
73103;BME280;61294;65.988;29.172;2023-05-01T02:31:59;97348.72;;;-0.46;100.00
73103;BME280;61294;65.988;29.172;2023-05-01T02:34:25;97373.94;;;-0.36;100.00
73103;BME280;61294;65.988;29.172;2023-05-01T02:36:52;97366.19;;;-0.34;100.00
73103;BME280;61294;65.988;29.172;2023-05-01T02:39:17;97351.25;;;-0.49;100.00
73103;BME280;61294;65.988;29.172;2023-05-01T02:41:44;97347.81;;;-0.48;100.00
73103;BME280;61294;65.988;29.172;2023-05-01T02:44:11;97378.22;;;-0.36;100.00
73103;BME280;61294;65.988;29.172;2023-05-01T02:46:41;97374.72;;;-0.40;100.00
73103;BME280;61294;65.988;29.172;2023-05-01T02:49:09;97372.09;;;-0.43;100.00
73103;BME280;61294;65.988;29.172;2023-05-01T02:51:36;97371.97;;;-0.47;100.00
73103;BME280;61294;65.988;29.172;2023-05-01T02:54:02;97339.00;;;-0.59;100.00
73103;BME280;61294;65.988;29.172;2023-05-01T02:56:29;97374.72;;;-0.40;100.00
73103;BME280;61294;65.988;29.172;2023-05-01T02:58:55;97363.47;;;-0.40;100.00
73103;BME280;61294;65.988;29.172;2023-05-01T03:01:21;97353.78;;;-0.52;100.00
73103;BME280;61294;65.988;29.172;2023-05-01T03:03:47;97370.31;;;-0.44;100.00
73103;BME280;61294;65.988;29.172;2023-05-01T03:06:12;97370.47;;;-0.35;100.00
73103;BME280;61294;65.988;29.172;2023-05-01T03:08:39;97353.06;;;-0.45;100.00
73103;BME280;61294;65.988;29.172;2023-05-01T03:11:08;97368.63;;;-0.42;100.00
73103;BME280;61294;65.988;29.172;2023-05-01T03:13:34;97377.50;;;-0.27;100.00
73103;BME280;61294;65.988;29.172;2023-05-01T03:16:00;97376.59;;;-0.31;100.00
73103;BME280;61294;65.988;29.172;2023-05-01T03:18:26;97350.53;;;-0.40;100.00
73103;BME280;61294;65.988;29.172;2023-05-01T03:20:55;97379.34;;;-0.20;100.00
73103;BME280;61294;65.988;29.172;2023-05-01T03:23:22;97383.75;;;-0.16;100.00
73103;BME280;61294;65.988;29.172;2023-05-01T03:25:48;97373.34;;;-0.18;100.00
73103;BME280;61294;65.988;29.172;2023-05-01T03:28:14;97379.47;;;-0.14;100.00
73103;BME280;61294;65.988;29.172;2023-05-01T03:30:41;97382.09;;;-0.12;100.00
73103;BME280;61294;65.988;29.172;2023-05-01T03:33:07;97356.75;;;-0.30;100.00
73103;BME280;61294;65.988;29.172;2023-05-01T03:35:32;97379.44;;;-0.15;100.00
73103;BME280;61294;65.988;29.172;2023-05-01T03:37:58;97383.91;;;-0.07;100.00
73103;BME280;61294;65.988;29.172;2023-05-01T03:40:24;97377.03;;;-0.03;100.00
73103;BME280;61294;65.988;29.172;2023-05-01T03:42:49;97376.31;;;0.06;100.00
73103;BME280;61294;65.988;29.172;2023-05-01T03:45:15;97379.81;;;0.08;100.00
73103;BME280;61294;65.988;29.172;2023-05-01T03:47:41;97379.13;;;0.18;100.00
73103;BME280;61294;65.988;29.172;2023-05-01T03:50:07;97380.09;;;0.25;100.00
73103;BME280;61294;65.988;29.172;2023-05-01T03:52:33;97365.38;;;0.22;100.00
73103;BME280;61294;65.988;29.172;2023-05-01T03:54:59;97384.16;;;0.09;100.00
73103;BME280;61294;65.988;29.172;2023-05-01T03:57:25;97385.78;;;0.02;100.00
73103;BME280;61294;65.988;29.172;2023-05-01T03:59:52;97389.34;;;0.09;100.00
73103;BME280;61294;65.988;29.172;2023-05-01T04:02:18;97388.28;;;-0.03;100.00
73103;BME280;61294;65.988;29.172;2023-05-01T04:04:44;97367.25;;;-0.23;100.00
73103;BME280;61294;65.988;29.172;2023-05-01T04:07:10;97397.91;;;0.05;100.00
73103;BME280;61294;65.988;29.172;2023-05-01T04:09:36;97398.91;;;0.13;100.00
73103;BME280;61294;65.988;29.172;2023-05-01T04:12:02;97397.19;;;0.13;100.00
73103;BME280;61294;65.988;29.172;2023-05-01T04:14:27;97400.69;;;0.17;100.00
73103;BME280;61294;65.988;29.172;2023-05-01T04:16:53;97386.75;;;0.09;100.00
73103;BME280;61294;65.988;29.172;2023-05-01T04:19:19;97394.84;;;0.29;100.00
73103;BME280;61294;65.988;29.172;2023-05-01T04:21:45;97397.63;;;0.43;100.00
73103;BME280;61294;65.988;29.172;2023-05-01T04:24:11;97399.25;;;0.34;100.00
73103;BME280;61294;65.988;29.172;2023-05-01T04:26:37;97393.81;;;0.19;100.00
73103;BME280;61294;65.988;29.172;2023-05-01T04:29:03;97407.91;;;0.37;100.00
73103;BME280;61294;65.988;29.172;2023-05-01T04:31:29;97392.28;;;0.30;100.00
73103;BME280;61294;65.988;29.172;2023-05-01T04:33:55;97394.25;;;0.48;100.00
73103;BME280;61294;65.988;29.172;2023-05-01T04:36:21;97399.22;;;0.33;100.00
73103;BME280;61294;65.988;29.172;2023-05-01T04:38:47;97397.00;;;0.58;100.00
73103;BME280;61294;65.988;29.172;2023-05-01T04:41:13;97370.03;;;0.45;100.00
73103;BME280;61294;65.988;29.172;2023-05-01T04:43:39;97386.66;;;0.59;100.00
73103;BME280;61294;65.988;29.172;2023-05-01T04:46:04;97394.47;;;0.62;100.00
73103;BME280;61294;65.988;29.172;2023-05-01T04:48:30;97395.44;;;0.69;100.00
73103;BME280;61294;65.988;29.172;2023-05-01T04:50:56;97394.63;;;0.73;100.00
73103;BME280;61294;65.988;29.172;2023-05-01T04:53:22;97403.88;;;0.56;100.00
73103;BME280;61294;65.988;29.172;2023-05-01T04:55:48;97397.84;;;0.58;100.00
73103;BME280;61294;65.988;29.172;2023-05-01T04:58:14;97399.63;;;0.61;100.00
73103;BME280;61294;65.988;29.172;2023-05-01T05:00:39;97403.31;;;0.77;100.00
73103;BME280;61294;65.988;29.172;2023-05-01T05:03:05;97409.41;;;0.80;100.00
73103;BME280;61294;65.988;29.172;2023-05-01T05:05:32;97403.38;;;0.80;100.00
73103;BME280;61294;65.988;29.172;2023-05-01T05:07:58;97381.25;;;0.45;100.00
73103;BME280;61294;65.988;29.172;2023-05-01T05:10:24;97391.75;;;0.53;100.00
73103;BME280;61294;65.988;29.172;2023-05-01T05:12:49;97409.44;;;0.82;100.00
73103;BME280;61294;65.988;29.172;2023-05-01T05:15:15;97406.75;;;0.76;100.00
73103;BME280;61294;65.988;29.172;2023-05-01T05:17:41;97407.88;;;0.93;100.00
73103;BME280;61294;65.988;29.172;2023-05-01T05:20:07;97417.38;;;0.94;100.00
73103;BME280;61294;65.988;29.172;2023-05-01T05:22:36;97414.16;;;1.12;100.00
73103;BME280;61294;65.988;29.172;2023-05-01T05:25:02;97417.63;;;1.11;100.00
73103;BME280;61294;65.988;29.172;2023-05-01T05:27:29;97416.88;;;1.22;100.00
73103;BME280;61294;65.988;29.172;2023-05-01T05:30:07;97420.25;;;1.14;100.00
73103;BME280;61294;65.988;29.172;2023-05-01T05:32:33;97422.81;;;1.11;100.00
73103;BME280;61294;65.988;29.172;2023-05-01T05:34:59;97420.38;;;1.28;100.00
73103;BME280;61294;65.988;29.172;2023-05-01T05:37:24;97424.44;;;1.05;100.00
73103;BME280;61294;65.988;29.172;2023-05-01T05:39:53;97395.69;;;0.89;100.00
73103;BME280;61294;65.988;29.172;2023-05-01T05:42:19;97425.84;;;0.81;100.00
73103;BME280;61294;65.988;29.172;2023-05-01T05:44:45;97428.72;;;1.04;100.00
73103;BME280;61294;65.988;29.172;2023-05-01T05:47:10;97419.03;;;0.89;100.00
73103;BME280;61294;65.988;29.172;2023-05-01T05:49:36;97401.03;;;0.98;100.00
73103;BME280;61294;65.988;29.172;2023-05-01T05:52:02;97430.72;;;1.25;100.00
73103;BME280;61294;65.988;29.172;2023-05-01T05:54:27;97433.88;;;0.99;100.00
73103;BME280;61294;65.988;29.172;2023-05-01T05:56:53;97416.47;;;0.92;100.00
73103;BME280;61294;65.988;29.172;2023-05-01T05:59:19;97435.22;;;1.35;100.00
73103;BME280;61294;65.988;29.172;2023-05-01T06:01:45;97426.84;;;1.61;100.00
73103;BME280;61294;65.988;29.172;2023-05-01T06:04:11;97418.25;;;1.67;100.00
73103;BME280;61294;65.988;29.172;2023-05-01T06:06:39;97429.69;;;1.84;100.00
73103;BME280;61294;65.988;29.172;2023-05-01T06:09:05;97396.78;;;1.83;100.00
73103;BME280;61294;65.988;29.172;2023-05-01T06:11:32;97425.47;;;1.97;99.79
73103;BME280;61294;65.988;29.172;2023-05-01T06:13:58;97418.50;;;1.93;98.37
73103;BME280;61294;65.988;29.172;2023-05-01T06:16:24;97438.44;;;1.93;98.08
73103;BME280;61294;65.988;29.172;2023-05-01T06:18:50;97413.19;;;1.79;97.51
73103;BME280;61294;65.988;29.172;2023-05-01T06:21:16;97427.97;;;1.86;96.87
73103;BME280;61294;65.988;29.172;2023-05-01T06:23:42;97436.75;;;2.01;96.47
73103;BME280;61294;65.988;29.172;2023-05-01T06:26:08;97437.88;;;2.29;96.28
73103;BME280;61294;65.988;29.172;2023-05-01T06:28:34;97413.63;;;2.27;94.80
73103;BME280;61294;65.988;29.172;2023-05-01T06:31:00;97447.59;;;2.52;94.10
73103;BME280;61294;65.988;29.172;2023-05-01T06:33:25;97439.06;;;2.68;94.00
73103;BME280;61294;65.988;29.172;2023-05-01T06:35:51;97448.78;;;2.92;93.22
73103;BME280;61294;65.988;29.172;2023-05-01T06:38:17;97446.13;;;2.88;92.28
73103;BME280;61294;65.988;29.172;2023-05-01T06:40:42;97449.72;;;3.08;91.89
73103;BME280;61294;65.988;29.172;2023-05-01T06:43:11;97448.00;;;3.12;89.88
73103;BME280;61294;65.988;29.172;2023-05-01T06:45:36;97448.22;;;3.60;88.68
73103;BME280;61294;65.988;29.172;2023-05-01T06:48:05;97453.38;;;3.49;88.32
73103;BME280;61294;65.988;29.172;2023-05-01T06:50:30;97424.75;;;3.49;88.23
73103;BME280;61294;65.988;29.172;2023-05-01T06:52:56;97456.88;;;3.56;88.26
73103;BME280;61294;65.988;29.172;2023-05-01T06:55:24;97457.84;;;3.79;87.96
73103;BME280;61294;65.988;29.172;2023-05-01T06:57:50;97461.16;;;3.35;85.76
73103;BME280;61294;65.988;29.172;2023-05-01T07:00:16;97438.41;;;3.05;87.73
73103;BME280;61294;65.988;29.172;2023-05-01T07:02:43;97455.94;;;3.38;86.99
73103;BME280;61294;65.988;29.172;2023-05-01T07:05:11;97455.88;;;3.24;84.39
73103;BME280;61294;65.988;29.172;2023-05-01T07:07:37;97418.38;;;2.84;85.70
73103;BME280;61294;65.988;29.172;2023-05-01T07:10:03;97454.06;;;3.09;87.10
73103;BME280;61294;65.988;29.172;2023-05-01T07:12:29;97449.63;;;2.94;85.17
73103;BME280;61294;65.988;29.172;2023-05-01T07:14:54;97450.59;;;3.12;86.17
73103;BME280;61294;65.988;29.172;2023-05-01T07:17:21;97453.25;;;3.18;84.73
73103;BME280;61294;65.988;29.172;2023-05-01T07:19:47;97460.31;;;3.45;81.95
73103;BME280;61294;65.988;29.172;2023-05-01T07:22:14;97442.25;;;4.10;81.76
73103;BME280;61294;65.988;29.172;2023-05-01T07:24:40;97455.28;;;4.00;81.41
73103;BME280;61294;65.988;29.172;2023-05-01T07:27:06;97429.97;;;3.51;82.00
73103;BME280;61294;65.988;29.172;2023-05-01T07:29:32;97464.72;;;3.60;83.53
73103;BME280;61294;65.988;29.172;2023-05-01T07:31:57;97452.53;;;3.52;83.61
73103;BME280;61294;65.988;29.172;2023-05-01T07:34:23;97457.84;;;3.87;83.04
73103;BME280;61294;65.988;29.172;2023-05-01T07:36:49;97451.84;;;4.10;82.38
73103;BME280;61294;65.988;29.172;2023-05-01T07:39:15;97459.59;;;3.84;81.59
73103;BME280;61294;65.988;29.172;2023-05-01T07:41:42;97470.72;;;3.45;82.80
73103;BME280;61294;65.988;29.172;2023-05-01T07:44:08;97455.19;;;3.62;81.19
73103;BME280;61294;65.988;29.172;2023-05-01T07:46:33;97455.34;;;4.40;81.08
73103;BME280;61294;65.988;29.172;2023-05-01T07:49:00;97451.84;;;4.33;81.54
73103;BME280;61294;65.988;29.172;2023-05-01T07:51:26;97451.84;;;4.24;80.53
73103;BME280;61294;65.988;29.172;2023-05-01T07:53:52;97463.06;;;3.79;81.69
73103;BME280;61294;65.988;29.172;2023-05-01T07:56:17;97459.59;;;3.80;83.04
73103;BME280;61294;65.988;29.172;2023-05-01T07:58:43;97463.16;;;4.20;81.52
73103;BME280;61294;65.988;29.172;2023-05-01T08:01:09;97468.38;;;4.32;79.63
73103;BME280;61294;65.988;29.172;2023-05-01T08:03:35;97459.66;;;4.11;79.88
73103;BME280;61294;65.988;29.172;2023-05-01T08:06:00;97467.47;;;3.99;79.60
73103;BME280;61294;65.988;29.172;2023-05-01T08:08:26;97464.91;;;4.50;78.97
73103;BME280;61294;65.988;29.172;2023-05-01T08:10:52;97459.69;;;4.69;78.62
73103;BME280;61294;65.988;29.172;2023-05-01T08:13:18;97471.84;;;4.87;77.81
73103;BME280;61294;65.988;29.172;2023-05-01T08:15:45;97452.72;;;4.92;78.01
73103;BME280;61294;65.988;29.172;2023-05-01T08:18:11;97472.72;;;4.82;77.85
73103;BME280;61294;65.988;29.172;2023-05-01T08:20:39;97460.53;;;4.23;78.22
73103;BME280;61294;65.988;29.172;2023-05-01T08:23:05;97467.44;;;3.93;79.63
73103;BME280;61294;65.988;29.172;2023-05-01T08:25:30;97469.13;;;3.77;79.94
73103;BME280;61294;65.988;29.172;2023-05-01T08:27:56;97471.78;;;3.89;79.80
73103;BME280;61294;65.988;29.172;2023-05-01T08:30:22;97462.22;;;3.85;79.14
73103;BME280;61294;65.988;29.172;2023-05-01T08:32:48;97475.22;;;3.84;78.99
73103;BME280;61294;65.988;29.172;2023-05-01T08:35:14;97471.88;;;4.53;77.09
73103;BME280;61294;65.988;29.172;2023-05-01T08:37:40;97470.13;;;4.93;76.30
73103;BME280;61294;65.988;29.172;2023-05-01T08:40:06;97468.28;;;5.35;75.70
73103;BME280;61294;65.988;29.172;2023-05-01T08:42:36;97450.06;;;5.23;73.25
73103;BME280;61294;65.988;29.172;2023-05-01T08:45:12;97466.56;;;5.30;73.14
73103;BME280;61294;65.988;29.172;2023-05-01T08:47:39;97458.59;;;5.64;73.65
73103;BME280;61294;65.988;29.172;2023-05-01T08:50:09;97462.09;;;5.67;72.05
73103;BME280;61294;65.988;29.172;2023-05-01T08:52:39;97468.03;;;5.93;72.09
73103;BME280;61294;65.988;29.172;2023-05-01T08:55:14;97473.44;;;5.60;70.35
73103;BME280;61294;65.988;29.172;2023-05-01T08:57:47;97493.44;;;5.63;71.83
73103;BME280;61294;65.988;29.172;2023-05-01T09:00:17;97490.88;;;5.50;70.97
73103;BME280;61294;65.988;29.172;2023-05-01T09:02:45;97473.31;;;5.88;70.39
73103;BME280;61294;65.988;29.172;2023-05-01T09:05:14;97490.84;;;5.66;69.59
73103;BME280;61294;65.988;29.172;2023-05-01T09:07:40;97462.25;;;5.04;70.95
73103;BME280;61294;65.988;29.172;2023-05-01T09:10:07;97478.84;;;4.66;70.44
73103;BME280;61294;65.988;29.172;2023-05-01T09:12:33;97484.03;;;4.60;71.35
73103;BME280;61294;65.988;29.172;2023-05-01T09:15:02;97496.22;;;4.64;73.28
73103;BME280;61294;65.988;29.172;2023-05-01T09:17:28;97501.41;;;4.44;72.55
73103;BME280;61294;65.988;29.172;2023-05-01T09:19:56;97477.94;;;4.38;75.03
73103;BME280;61294;65.988;29.172;2023-05-01T09:22:22;97495.34;;;4.57;74.91
73103;BME280;61294;65.988;29.172;2023-05-01T09:24:48;97494.44;;;4.47;75.00
73103;BME280;61294;65.988;29.172;2023-05-01T09:27:14;97498.72;;;4.02;74.85
73103;BME280;61294;65.988;29.172;2023-05-01T09:29:41;97516.91;;;3.82;75.62
73103;BME280;61294;65.988;29.172;2023-05-01T09:34:47;97510.91;;;4.19;77.25
73103;BME280;61294;65.988;29.172;2023-05-01T09:37:31;97507.50;;;4.30;77.37
73103;BME280;61294;65.988;29.172;2023-05-01T09:40:05;97510.00;;;3.95;78.63
73103;BME280;61294;65.988;29.172;2023-05-01T09:42:33;97502.19;;;4.06;78.93
73103;BME280;61294;65.988;29.172;2023-05-01T09:44:59;97499.69;;;4.78;78.62
73103;BME280;61294;65.988;29.172;2023-05-01T09:47:27;97490.00;;;5.48;76.17
73103;BME280;61294;65.988;29.172;2023-05-01T09:49:55;97498.91;;;6.78;72.49
73103;BME280;61294;65.988;29.172;2023-05-01T09:52:30;97486.25;;;7.26;70.25
73103;BME280;61294;65.988;29.172;2023-05-01T09:55:12;97484.06;;;6.83;69.76
73103;BME280;61294;65.988;29.172;2023-05-01T09:57:38;97493.50;;;5.52;69.49
73103;BME280;61294;65.988;29.172;2023-05-01T10:00:05;97497.53;;;6.27;67.64
73103;BME280;61294;65.988;29.172;2023-05-01T10:02:33;97487.19;;;8.62;61.19
73103;BME280;61294;65.988;29.172;2023-05-01T10:04:58;97491.00;;;6.87;61.19
73103;BME280;61294;65.988;29.172;2023-05-01T10:07:25;97488.38;;;6.87;63.50
73103;BME280;61294;65.988;29.172;2023-05-01T10:09:51;97464.16;;;6.62;61.79
73103;BME280;61294;65.988;29.172;2023-05-01T10:14:54;97485.50;;;7.15;62.71
73103;BME280;61294;65.988;29.172;2023-05-01T10:17:20;97469.03;;;7.83;57.73
73103;BME280;61294;65.988;29.172;2023-05-01T10:19:46;97485.94;;;11.35;49.62
73103;BME280;61294;65.988;29.172;2023-05-01T10:22:13;97494.38;;;9.05;53.81
73103;BME280;61294;65.988;29.172;2023-05-01T10:24:39;97472.88;;;15.62;41.99
73103;BME280;61294;65.988;29.172;2023-05-01T10:27:06;97470.16;;;17.51;38.08
73103;BME280;61294;65.988;29.172;2023-05-01T10:29:36;97475.44;;;20.07;32.23
73103;BME280;61294;65.988;29.172;2023-05-01T10:32:05;97474.78;;;21.55;30.11
73103;BME280;61294;65.988;29.172;2023-05-01T10:34:36;97455.03;;;20.89;30.30
73103;BME280;61294;65.988;29.172;2023-05-01T10:37:17;97479.06;;;14.08;37.35
73103;BME280;61294;65.988;29.172;2023-05-01T10:39:44;97476.31;;;18.04;33.45
73103;BME280;61294;65.988;29.172;2023-05-01T10:42:10;97464.09;;;18.00;34.18
73103;BME280;61294;65.988;29.172;2023-05-01T10:44:39;97478.59;;;12.95;39.70
73103;BME280;61294;65.988;29.172;2023-05-01T10:47:43;97469.81;;;15.10;36.88
73103;BME280;61294;65.988;29.172;2023-05-01T10:50:12;97463.38;;;19.10;32.40
73103;BME280;61294;65.988;29.172;2023-05-01T10:55:39;97445.16;;;17.71;32.17
73103;BME280;61294;65.988;29.172;2023-05-01T10:58:10;97464.28;;;11.55;40.51
73103;BME280;61294;65.988;29.172;2023-05-01T11:00:36;97464.09;;;11.61;42.50
73103;BME280;61294;65.988;29.172;2023-05-01T11:08:34;97461.75;;;20.40;31.50
73103;BME280;61294;65.988;29.172;2023-05-01T11:14:06;97478.28;;;14.29;39.11
73103;BME280;61294;65.988;29.172;2023-05-01T11:21:45;97473.47;;;16.85;35.37
73103;BME280;61294;65.988;29.172;2023-05-01T11:24:11;97445.16;;;14.63;37.29
73103;BME280;61294;65.988;29.172;2023-05-01T11:26:41;97466.03;;;10.87;41.37
73103;BME280;61294;65.988;29.172;2023-05-01T11:29:10;97467.66;;;10.57;44.54
73103;BME280;61294;65.988;29.172;2023-05-01T11:31:37;97469.59;;;10.86;45.26
73103;BME280;61294;65.988;29.172;2023-05-01T11:34:04;97471.38;;;10.48;44.93
73103;BME280;61294;65.988;29.172;2023-05-01T11:36:49;97466.53;;;10.67;43.80
73103;BME280;61294;65.988;29.172;2023-05-01T11:39:15;97471.19;;;10.16;45.07
73103;BME280;61294;65.988;29.172;2023-05-01T11:41:45;97473.59;;;8.91;46.49
73103;BME280;61294;65.988;29.172;2023-05-01T11:44:14;97469.78;;;7.92;48.56
73103;BME280;61294;65.988;29.172;2023-05-01T11:46:40;97471.50;;;7.19;50.03
73103;BME280;61294;65.988;29.172;2023-05-01T11:49:06;97475.72;;;7.31;50.01
73103;BME280;61294;65.988;29.172;2023-05-01T11:51:32;97471.78;;;7.72;50.31
73103;BME280;61294;65.988;29.172;2023-05-01T11:54:07;97469.19;;;8.34;50.72
73103;BME280;61294;65.988;29.172;2023-05-01T11:56:37;97472.06;;;9.29;48.71
73103;BME280;61294;65.988;29.172;2023-05-01T11:59:13;97477.69;;;9.55;47.70
73103;BME280;61294;65.988;29.172;2023-05-01T12:01:44;97457.09;;;12.51;44.18
73103;BME280;61294;65.988;29.172;2023-05-01T12:04:12;97456.25;;;13.29;39.01
73103;BME280;61294;65.988;29.172;2023-05-01T12:06:44;97465.63;;;10.29;45.71
73103;BME280;61294;65.988;29.172;2023-05-01T12:09:18;97454.59;;;14.25;41.35
73103;BME280;61294;65.988;29.172;2023-05-01T12:11:46;97450.34;;;12.13;40.77
73103;BME280;61294;65.988;29.172;2023-05-01T12:14:13;97457.78;;;13.38;39.83
73103;BME280;61294;65.988;29.172;2023-05-01T12:16:40;97463.56;;;10.81;42.91
73103;BME280;61294;65.988;29.172;2023-05-01T12:19:07;97439.28;;;8.48;44.91
73103;BME280;61294;65.988;29.172;2023-05-01T12:21:33;97473.75;;;7.54;48.16
73103;BME280;61294;65.988;29.172;2023-05-01T12:24:19;97479.53;;;6.99;50.35
73103;BME280;61294;65.988;29.172;2023-05-01T12:26:45;97463.91;;;11.69;43.16
73103;BME280;61294;65.988;29.172;2023-05-01T12:29:11;97463.13;;;11.97;41.32
73103;BME280;61294;65.988;29.172;2023-05-01T12:31:45;97432.41;;;14.51;38.22
73103;BME280;61294;65.988;29.172;2023-05-01T12:34:11;97463.38;;;16.55;36.26
73103;BME280;61294;65.988;29.172;2023-05-01T12:36:37;97454.44;;;13.32;37.99
73103;BME280;61294;65.988;29.172;2023-05-01T12:39:05;97453.53;;;13.83;37.57
73103;BME280;61294;65.988;29.172;2023-05-01T12:43:59;97468.63;;;12.49;38.62
73103;BME280;61294;65.988;29.172;2023-05-01T12:46:25;97445.06;;;10.07;42.67
73103;BME280;61294;65.988;29.172;2023-05-01T12:48:52;97477.03;;;9.43;47.00
73103;BME280;61294;65.988;29.172;2023-05-01T12:51:19;97472.81;;;8.27;48.98
73103;BME280;61294;65.988;29.172;2023-05-01T12:53:45;97493.06;;;8.16;51.41
73103;BME280;61294;65.988;29.172;2023-05-01T12:56:22;97494.19;;;7.96;53.30
73103;BME280;61294;65.988;29.172;2023-05-01T12:58:49;97499.41;;;9.64;48.67
73103;BME280;61294;65.988;29.172;2023-05-01T13:01:26;97479.25;;;14.49;40.09
73103;BME280;61294;65.988;29.172;2023-05-01T13:03:53;97477.50;;;16.55;36.91
73103;BME280;61294;65.988;29.172;2023-05-01T13:06:21;97463.09;;;19.14;33.72
73103;BME280;61294;65.988;29.172;2023-05-01T13:08:47;97474.47;;;18.70;32.33
73103;BME280;61294;65.988;29.172;2023-05-01T13:11:15;97472.84;;;18.68;32.16
73103;BME280;61294;65.988;29.172;2023-05-01T13:13:45;97468.28;;;15.25;34.63
73103;BME280;61294;65.988;29.172;2023-05-01T13:16:13;97448.69;;;11.79;39.56
73103;BME280;61294;65.988;29.172;2023-05-01T13:18:49;97480.59;;;11.69;40.04
73103;BME280;61294;65.988;29.172;2023-05-01T13:21:20;97473.06;;;15.78;33.50
73103;BME280;61294;65.988;29.172;2023-05-01T13:23:57;97485.06;;;14.37;35.52
73103;BME280;61294;65.988;29.172;2023-05-01T13:26:28;97473.06;;;10.88;40.42
73103;BME280;61294;65.988;29.172;2023-05-01T13:28:55;97468.50;;;12.80;40.78